sensor_id;sensor_type;location;lat;lon;timestamp;P1;durP1;ratioP1;P2;durP2;ratioP2
8183;SDS011;4133;48.752;9.088;2023-04-06T00:01:50;5.43;;;3.27;;
8183;SDS011;4133;48.752;9.088;2023-04-06T00:04:16;4.47;;;3.57;;
8183;SDS011;4133;48.752;9.088;2023-04-06T00:06:42;3.37;;;3.07;;
8183;SDS011;4133;48.752;9.088;2023-04-06T00:09:08;3.37;;;3.07;;
8183;SDS011;4133;48.752;9.088;2023-04-06T00:11:34;4.30;;;3.60;;
8183;SDS011;4133;48.752;9.088;2023-04-06T00:14:00;3.63;;;3.13;;
8183;SDS011;4133;48.752;9.088;2023-04-06T00:16:26;4.80;;;3.17;;
8183;SDS011;4133;48.752;9.088;2023-04-06T00:18:52;4.60;;;3.50;;
8183;SDS011;4133;48.752;9.088;2023-04-06T00:21:18;3.47;;;2.93;;
8183;SDS011;4133;48.752;9.088;2023-04-06T00:23:47;3.87;;;3.33;;
8183;SDS011;4133;48.752;9.088;2023-04-06T00:26:13;5.00;;;3.50;;
8183;SDS011;4133;48.752;9.088;2023-04-06T00:28:39;5.87;;;3.63;;
8183;SDS011;4133;48.752;9.088;2023-04-06T00:31:05;4.33;;;3.50;;
8183;SDS011;4133;48.752;9.088;2023-04-06T00:33:32;5.97;;;3.83;;
8183;SDS011;4133;48.752;9.088;2023-04-06T00:35:58;4.63;;;3.80;;
8183;SDS011;4133;48.752;9.088;2023-04-06T00:38:24;7.20;;;3.73;;
8183;SDS011;4133;48.752;9.088;2023-04-06T00:40:50;3.90;;;3.50;;
8183;SDS011;4133;48.752;9.088;2023-04-06T00:43:16;4.63;;;3.70;;
8183;SDS011;4133;48.752;9.088;2023-04-06T00:45:42;4.87;;;3.60;;
8183;SDS011;4133;48.752;9.088;2023-04-06T00:48:08;5.30;;;3.23;;
8183;SDS011;4133;48.752;9.088;2023-04-06T00:50:34;4.10;;;3.63;;
8183;SDS011;4133;48.752;9.088;2023-04-06T00:53:00;5.07;;;3.60;;
8183;SDS011;4133;48.752;9.088;2023-04-06T00:55:27;4.60;;;3.40;;
8183;SDS011;4133;48.752;9.088;2023-04-06T00:57:53;4.67;;;3.40;;
8183;SDS011;4133;48.752;9.088;2023-04-06T01:00:19;4.57;;;3.53;;
8183;SDS011;4133;48.752;9.088;2023-04-06T01:02:46;4.57;;;3.80;;
8183;SDS011;4133;48.752;9.088;2023-04-06T01:05:12;5.50;;;3.47;;
8183;SDS011;4133;48.752;9.088;2023-04-06T01:07:38;4.90;;;3.40;;
8183;SDS011;4133;48.752;9.088;2023-04-06T01:10:05;5.97;;;3.43;;
8183;SDS011;4133;48.752;9.088;2023-04-06T01:12:31;5.37;;;3.80;;
8183;SDS011;4133;48.752;9.088;2023-04-06T01:14:57;6.03;;;3.83;;
8183;SDS011;4133;48.752;9.088;2023-04-06T01:17:23;5.03;;;4.20;;
8183;SDS011;4133;48.752;9.088;2023-04-06T01:19:49;5.67;;;3.77;;
8183;SDS011;4133;48.752;9.088;2023-04-06T01:22:18;6.90;;;4.30;;
8183;SDS011;4133;48.752;9.088;2023-04-06T01:24:52;6.50;;;4.20;;
8183;SDS011;4133;48.752;9.088;2023-04-06T01:27:18;5.17;;;4.00;;
8183;SDS011;4133;48.752;9.088;2023-04-06T01:29:44;4.63;;;3.67;;
8183;SDS011;4133;48.752;9.088;2023-04-06T01:32:10;5.70;;;3.97;;
8183;SDS011;4133;48.752;9.088;2023-04-06T01:34:36;6.80;;;4.33;;
8183;SDS011;4133;48.752;9.088;2023-04-06T01:37:02;6.70;;;3.97;;
8183;SDS011;4133;48.752;9.088;2023-04-06T01:39:28;5.10;;;4.20;;
8183;SDS011;4133;48.752;9.088;2023-04-06T01:41:55;4.93;;;3.90;;
8183;SDS011;4133;48.752;9.088;2023-04-06T01:44:21;5.53;;;4.20;;
8183;SDS011;4133;48.752;9.088;2023-04-06T01:46:47;5.20;;;3.80;;
8183;SDS011;4133;48.752;9.088;2023-04-06T01:49:13;5.00;;;4.20;;
8183;SDS011;4133;48.752;9.088;2023-04-06T01:51:39;4.47;;;3.67;;
8183;SDS011;4133;48.752;9.088;2023-04-06T01:54:05;5.00;;;4.23;;
8183;SDS011;4133;48.752;9.088;2023-04-06T01:56:31;6.60;;;4.17;;
8183;SDS011;4133;48.752;9.088;2023-04-06T01:58:57;7.20;;;4.63;;
8183;SDS011;4133;48.752;9.088;2023-04-06T02:01:23;5.53;;;4.10;;
8183;SDS011;4133;48.752;9.088;2023-04-06T02:03:49;5.83;;;4.03;;
8183;SDS011;4133;48.752;9.088;2023-04-06T02:06:15;4.70;;;3.80;;
8183;SDS011;4133;48.752;9.088;2023-04-06T02:08:41;5.67;;;3.90;;
8183;SDS011;4133;48.752;9.088;2023-04-06T02:11:07;5.83;;;4.40;;
8183;SDS011;4133;48.752;9.088;2023-04-06T02:13:33;5.23;;;4.00;;
8183;SDS011;4133;48.752;9.088;2023-04-06T02:15:59;8.87;;;4.27;;
8183;SDS011;4133;48.752;9.088;2023-04-06T02:18:27;7.20;;;4.33;;
8183;SDS011;4133;48.752;9.088;2023-04-06T02:20:53;5.00;;;4.00;;
8183;SDS011;4133;48.752;9.088;2023-04-06T02:23:19;6.90;;;4.40;;
8183;SDS011;4133;48.752;9.088;2023-04-06T02:25:45;9.77;;;4.13;;
8183;SDS011;4133;48.752;9.088;2023-04-06T02:28:11;5.47;;;4.30;;
8183;SDS011;4133;48.752;9.088;2023-04-06T02:30:37;5.27;;;4.17;;
8183;SDS011;4133;48.752;9.088;2023-04-06T02:33:03;4.60;;;3.90;;
8183;SDS011;4133;48.752;9.088;2023-04-06T02:35:30;5.63;;;4.33;;
8183;SDS011;4133;48.752;9.088;2023-04-06T02:37:56;4.53;;;3.70;;
8183;SDS011;4133;48.752;9.088;2023-04-06T02:40:22;4.77;;;4.23;;
8183;SDS011;4133;48.752;9.088;2023-04-06T02:42:48;5.87;;;4.00;;
8183;SDS011;4133;48.752;9.088;2023-04-06T02:45:14;6.73;;;4.47;;
8183;SDS011;4133;48.752;9.088;2023-04-06T02:47:41;6.17;;;3.90;;
8183;SDS011;4133;48.752;9.088;2023-04-06T02:50:07;5.67;;;4.03;;
8183;SDS011;4133;48.752;9.088;2023-04-06T02:52:33;6.77;;;4.30;;
8183;SDS011;4133;48.752;9.088;2023-04-06T02:54:59;5.87;;;4.17;;
8183;SDS011;4133;48.752;9.088;2023-04-06T02:57:25;5.27;;;4.17;;
8183;SDS011;4133;48.752;9.088;2023-04-06T02:59:51;5.87;;;4.40;;
8183;SDS011;4133;48.752;9.088;2023-04-06T03:02:17;5.10;;;4.17;;
8183;SDS011;4133;48.752;9.088;2023-04-06T03:04:44;7.43;;;4.40;;
8183;SDS011;4133;48.752;9.088;2023-04-06T03:07:10;6.60;;;4.47;;
8183;SDS011;4133;48.752;9.088;2023-04-06T03:09:36;5.63;;;4.70;;
8183;SDS011;4133;48.752;9.088;2023-04-06T03:12:03;8.67;;;4.50;;
8183;SDS011;4133;48.752;9.088;2023-04-06T03:14:29;5.73;;;4.77;;
8183;SDS011;4133;48.752;9.088;2023-04-06T03:16:55;5.80;;;4.50;;
8183;SDS011;4133;48.752;9.088;2023-04-06T03:19:21;6.23;;;4.27;;
8183;SDS011;4133;48.752;9.088;2023-04-06T03:21:47;6.97;;;4.83;;
8183;SDS011;4133;48.752;9.088;2023-04-06T03:24:13;5.17;;;4.27;;
8183;SDS011;4133;48.752;9.088;2023-04-06T03:26:39;6.27;;;4.70;;
8183;SDS011;4133;48.752;9.088;2023-04-06T03:29:05;7.17;;;4.50;;
8183;SDS011;4133;48.752;9.088;2023-04-06T03:31:32;5.43;;;4.33;;
8183;SDS011;4133;48.752;9.088;2023-04-06T03:33:58;7.90;;;5.03;;
8183;SDS011;4133;48.752;9.088;2023-04-06T03:36:24;7.23;;;4.80;;
8183;SDS011;4133;48.752;9.088;2023-04-06T03:38:51;7.30;;;4.63;;
8183;SDS011;4133;48.752;9.088;2023-04-06T03:41:19;6.33;;;4.37;;
8183;SDS011;4133;48.752;9.088;2023-04-06T03:43:45;6.93;;;4.43;;
8183;SDS011;4133;48.752;9.088;2023-04-06T03:46:11;6.30;;;4.83;;
8183;SDS011;4133;48.752;9.088;2023-04-06T03:48:37;6.33;;;4.60;;
8183;SDS011;4133;48.752;9.088;2023-04-06T03:51:04;5.57;;;4.93;;
8183;SDS011;4133;48.752;9.088;2023-04-06T03:53:30;5.80;;;4.70;;
8183;SDS011;4133;48.752;9.088;2023-04-06T03:55:56;8.53;;;4.73;;
8183;SDS011;4133;48.752;9.088;2023-04-06T03:58:22;8.40;;;4.90;;
8183;SDS011;4133;48.752;9.088;2023-04-06T04:00:48;5.93;;;4.50;;
8183;SDS011;4133;48.752;9.088;2023-04-06T04:03:14;7.27;;;4.43;;
8183;SDS011;4133;48.752;9.088;2023-04-06T04:05:40;6.23;;;4.50;;
8183;SDS011;4133;48.752;9.088;2023-04-06T04:08:06;6.23;;;4.50;;
8183;SDS011;4133;48.752;9.088;2023-04-06T04:10:32;6.33;;;4.50;;
8183;SDS011;4133;48.752;9.088;2023-04-06T04:12:58;6.13;;;4.87;;
8183;SDS011;4133;48.752;9.088;2023-04-06T04:15:24;7.57;;;5.17;;
8183;SDS011;4133;48.752;9.088;2023-04-06T04:17:50;6.87;;;5.20;;
8183;SDS011;4133;48.752;9.088;2023-04-06T04:20:16;6.13;;;4.70;;
8183;SDS011;4133;48.752;9.088;2023-04-06T04:22:42;5.97;;;4.83;;
8183;SDS011;4133;48.752;9.088;2023-04-06T04:25:16;5.67;;;4.70;;
8183;SDS011;4133;48.752;9.088;2023-04-06T04:27:42;7.00;;;5.03;;
8183;SDS011;4133;48.752;9.088;2023-04-06T04:30:08;6.53;;;5.10;;
8183;SDS011;4133;48.752;9.088;2023-04-06T04:32:34;7.27;;;5.20;;
8183;SDS011;4133;48.752;9.088;2023-04-06T04:35:00;8.57;;;5.90;;
8183;SDS011;4133;48.752;9.088;2023-04-06T04:37:26;8.10;;;5.23;;
8183;SDS011;4133;48.752;9.088;2023-04-06T04:39:52;7.00;;;5.23;;
8183;SDS011;4133;48.752;9.088;2023-04-06T04:42:18;11.53;;;5.00;;
8183;SDS011;4133;48.752;9.088;2023-04-06T04:44:44;7.93;;;5.40;;
8183;SDS011;4133;48.752;9.088;2023-04-06T04:47:10;6.77;;;5.10;;
8183;SDS011;4133;48.752;9.088;2023-04-06T04:49:36;6.77;;;5.47;;
8183;SDS011;4133;48.752;9.088;2023-04-06T04:52:02;7.13;;;5.00;;
8183;SDS011;4133;48.752;9.088;2023-04-06T04:54:28;6.13;;;4.93;;
8183;SDS011;4133;48.752;9.088;2023-04-06T04:56:54;7.87;;;5.70;;
8183;SDS011;4133;48.752;9.088;2023-04-06T04:59:20;8.40;;;5.37;;
8183;SDS011;4133;48.752;9.088;2023-04-06T05:01:46;7.97;;;5.33;;
8183;SDS011;4133;48.752;9.088;2023-04-06T05:04:12;6.73;;;5.43;;
8183;SDS011;4133;48.752;9.088;2023-04-06T05:06:38;8.07;;;5.20;;
8183;SDS011;4133;48.752;9.088;2023-04-06T05:09:04;7.07;;;4.73;;
8183;SDS011;4133;48.752;9.088;2023-04-06T05:11:30;7.50;;;5.60;;
8183;SDS011;4133;48.752;9.088;2023-04-06T05:13:57;8.53;;;5.40;;
8183;SDS011;4133;48.752;9.088;2023-04-06T05:16:23;9.93;;;5.60;;
8183;SDS011;4133;48.752;9.088;2023-04-06T05:18:49;11.27;;;6.43;;
8183;SDS011;4133;48.752;9.088;2023-04-06T05:21:15;8.03;;;5.97;;
8183;SDS011;4133;48.752;9.088;2023-04-06T05:23:41;6.63;;;5.30;;
8183;SDS011;4133;48.752;9.088;2023-04-06T05:26:07;7.93;;;5.83;;
8183;SDS011;4133;48.752;9.088;2023-04-06T05:28:33;7.97;;;6.23;;
8183;SDS011;4133;48.752;9.088;2023-04-06T05:30:59;8.87;;;6.10;;
8183;SDS011;4133;48.752;9.088;2023-04-06T05:33:25;7.93;;;5.60;;
8183;SDS011;4133;48.752;9.088;2023-04-06T05:35:51;9.07;;;6.07;;
8183;SDS011;4133;48.752;9.088;2023-04-06T05:38:17;9.17;;;6.07;;
8183;SDS011;4133;48.752;9.088;2023-04-06T05:40:43;10.37;;;6.23;;
8183;SDS011;4133;48.752;9.088;2023-04-06T05:43:09;7.97;;;6.00;;
8183;SDS011;4133;48.752;9.088;2023-04-06T05:45:35;7.87;;;6.20;;
8183;SDS011;4133;48.752;9.088;2023-04-06T05:48:02;7.83;;;6.23;;
8183;SDS011;4133;48.752;9.088;2023-04-06T05:50:28;9.93;;;6.37;;
8183;SDS011;4133;48.752;9.088;2023-04-06T05:52:54;10.95;;;6.00;;
8183;SDS011;4133;48.752;9.088;2023-04-06T05:55:20;9.50;;;6.53;;
8183;SDS011;4133;48.752;9.088;2023-04-06T05:57:46;10.17;;;6.57;;
8183;SDS011;4133;48.752;9.088;2023-04-06T06:00:12;7.53;;;5.80;;
8183;SDS011;4133;48.752;9.088;2023-04-06T06:02:39;7.27;;;5.47;;
8183;SDS011;4133;48.752;9.088;2023-04-06T06:05:07;8.23;;;5.60;;
8183;SDS011;4133;48.752;9.088;2023-04-06T06:07:33;7.90;;;5.70;;
8183;SDS011;4133;48.752;9.088;2023-04-06T06:09:59;7.03;;;5.53;;
8183;SDS011;4133;48.752;9.088;2023-04-06T06:12:25;7.30;;;5.73;;
8183;SDS011;4133;48.752;9.088;2023-04-06T06:14:51;9.73;;;5.73;;
8183;SDS011;4133;48.752;9.088;2023-04-06T06:17:17;7.87;;;5.70;;
8183;SDS011;4133;48.752;9.088;2023-04-06T06:19:44;8.37;;;6.13;;
8183;SDS011;4133;48.752;9.088;2023-04-06T06:22:10;9.07;;;5.57;;
8183;SDS011;4133;48.752;9.088;2023-04-06T06:27:12;9.67;;;6.33;;
8183;SDS011;4133;48.752;9.088;2023-04-06T06:29:38;7.97;;;5.77;;
8183;SDS011;4133;48.752;9.088;2023-04-06T06:32:04;7.40;;;5.60;;
8183;SDS011;4133;48.752;9.088;2023-04-06T06:34:30;8.43;;;5.60;;
8183;SDS011;4133;48.752;9.088;2023-04-06T06:36:56;7.87;;;5.93;;
8183;SDS011;4133;48.752;9.088;2023-04-06T06:39:22;7.67;;;5.63;;
8183;SDS011;4133;48.752;9.088;2023-04-06T06:41:48;7.57;;;5.37;;
8183;SDS011;4133;48.752;9.088;2023-04-06T06:44:14;10.30;;;6.03;;
8183;SDS011;4133;48.752;9.088;2023-04-06T06:46:41;6.73;;;5.60;;
8183;SDS011;4133;48.752;9.088;2023-04-06T06:49:07;11.17;;;6.23;;
8183;SDS011;4133;48.752;9.088;2023-04-06T06:51:33;8.40;;;5.60;;
8183;SDS011;4133;48.752;9.088;2023-04-06T06:53:59;8.13;;;5.50;;
8183;SDS011;4133;48.752;9.088;2023-04-06T06:56:25;8.07;;;5.73;;
8183;SDS011;4133;48.752;9.088;2023-04-06T06:58:52;6.70;;;5.87;;
8183;SDS011;4133;48.752;9.088;2023-04-06T07:01:18;7.43;;;5.63;;
8183;SDS011;4133;48.752;9.088;2023-04-06T07:03:45;6.80;;;5.20;;
8183;SDS011;4133;48.752;9.088;2023-04-06T07:06:11;8.03;;;5.63;;
8183;SDS011;4133;48.752;9.088;2023-04-06T07:08:37;8.53;;;6.03;;
8183;SDS011;4133;48.752;9.088;2023-04-06T07:11:03;7.23;;;5.93;;
8183;SDS011;4133;48.752;9.088;2023-04-06T07:13:29;8.57;;;6.00;;
8183;SDS011;4133;48.752;9.088;2023-04-06T07:15:55;8.20;;;5.73;;
8183;SDS011;4133;48.752;9.088;2023-04-06T07:18:21;8.30;;;5.73;;
8183;SDS011;4133;48.752;9.088;2023-04-06T07:20:48;8.07;;;5.70;;
8183;SDS011;4133;48.752;9.088;2023-04-06T07:23:14;9.70;;;6.20;;
8183;SDS011;4133;48.752;9.088;2023-04-06T07:25:40;7.13;;;5.93;;
8183;SDS011;4133;48.752;9.088;2023-04-06T07:28:06;8.80;;;6.00;;
8183;SDS011;4133;48.752;9.088;2023-04-06T07:30:32;8.50;;;6.65;;
8183;SDS011;4133;48.752;9.088;2023-04-06T07:32:59;7.70;;;5.73;;
8183;SDS011;4133;48.752;9.088;2023-04-06T07:35:26;8.77;;;5.70;;
8183;SDS011;4133;48.752;9.088;2023-04-06T07:37:52;8.93;;;5.57;;
8183;SDS011;4133;48.752;9.088;2023-04-06T07:40:19;9.07;;;5.67;;
8183;SDS011;4133;48.752;9.088;2023-04-06T07:42:45;9.23;;;5.33;;
8183;SDS011;4133;48.752;9.088;2023-04-06T07:45:11;7.40;;;5.70;;
8183;SDS011;4133;48.752;9.088;2023-04-06T07:47:37;8.47;;;5.77;;
8183;SDS011;4133;48.752;9.088;2023-04-06T07:50:03;7.80;;;6.00;;
8183;SDS011;4133;48.752;9.088;2023-04-06T07:52:30;9.40;;;5.77;;
8183;SDS011;4133;48.752;9.088;2023-04-06T07:54:57;8.30;;;6.00;;
8183;SDS011;4133;48.752;9.088;2023-04-06T07:57:23;10.77;;;5.73;;
8183;SDS011;4133;48.752;9.088;2023-04-06T07:59:49;8.33;;;5.90;;
8183;SDS011;4133;48.752;9.088;2023-04-06T08:02:16;7.00;;;5.63;;
8183;SDS011;4133;48.752;9.088;2023-04-06T08:04:43;6.80;;;5.27;;
8183;SDS011;4133;48.752;9.088;2023-04-06T08:07:09;7.13;;;5.30;;
8183;SDS011;4133;48.752;9.088;2023-04-06T08:09:35;7.20;;;5.37;;
8183;SDS011;4133;48.752;9.088;2023-04-06T08:12:04;6.70;;;5.33;;
8183;SDS011;4133;48.752;9.088;2023-04-06T08:14:30;7.00;;;4.97;;
8183;SDS011;4133;48.752;9.088;2023-04-06T08:16:56;5.93;;;5.20;;
8183;SDS011;4133;48.752;9.088;2023-04-06T08:19:22;7.63;;;5.07;;
8183;SDS011;4133;48.752;9.088;2023-04-06T08:21:50;7.23;;;5.23;;
8183;SDS011;4133;48.752;9.088;2023-04-06T08:24:16;7.80;;;5.30;;
8183;SDS011;4133;48.752;9.088;2023-04-06T08:26:42;7.37;;;5.37;;
8183;SDS011;4133;48.752;9.088;2023-04-06T08:29:08;8.20;;;5.70;;
8183;SDS011;4133;48.752;9.088;2023-04-06T08:31:34;7.17;;;5.40;;
8183;SDS011;4133;48.752;9.088;2023-04-06T08:34:01;7.00;;;5.70;;
8183;SDS011;4133;48.752;9.088;2023-04-06T08:36:27;8.23;;;5.33;;
8183;SDS011;4133;48.752;9.088;2023-04-06T08:38:53;6.43;;;5.43;;
8183;SDS011;4133;48.752;9.088;2023-04-06T08:41:19;8.07;;;5.63;;
8183;SDS011;4133;48.752;9.088;2023-04-06T08:43:56;8.60;;;5.50;;
8183;SDS011;4133;48.752;9.088;2023-04-06T08:46:23;8.80;;;5.80;;
8183;SDS011;4133;48.752;9.088;2023-04-06T08:48:54;6.60;;;5.37;;
8183;SDS011;4133;48.752;9.088;2023-04-06T08:51:21;7.23;;;5.30;;
8183;SDS011;4133;48.752;9.088;2023-04-06T08:53:48;7.47;;;5.47;;
8183;SDS011;4133;48.752;9.088;2023-04-06T08:56:15;6.10;;;5.47;;
8183;SDS011;4133;48.752;9.088;2023-04-06T08:58:41;8.13;;;5.80;;
8183;SDS011;4133;48.752;9.088;2023-04-06T09:01:08;7.63;;;5.90;;
8183;SDS011;4133;48.752;9.088;2023-04-06T09:03:37;8.73;;;6.10;;
8183;SDS011;4133;48.752;9.088;2023-04-06T09:06:04;8.03;;;5.70;;
8183;SDS011;4133;48.752;9.088;2023-04-06T09:08:30;7.80;;;5.90;;
8183;SDS011;4133;48.752;9.088;2023-04-06T09:10:56;6.70;;;5.33;;
8183;SDS011;4133;48.752;9.088;2023-04-06T09:13:22;8.53;;;6.30;;
8183;SDS011;4133;48.752;9.088;2023-04-06T09:15:58;9.73;;;7.00;;
8183;SDS011;4133;48.752;9.088;2023-04-06T09:18:30;15.47;;;7.20;;
8183;SDS011;4133;48.752;9.088;2023-04-06T09:20:57;8.93;;;6.93;;
8183;SDS011;4133;48.752;9.088;2023-04-06T09:23:23;9.30;;;6.10;;
8183;SDS011;4133;48.752;9.088;2023-04-06T09:25:49;8.13;;;5.53;;
8183;SDS011;4133;48.752;9.088;2023-04-06T09:28:15;8.57;;;5.93;;
8183;SDS011;4133;48.752;9.088;2023-04-06T09:30:48;8.17;;;6.07;;
8183;SDS011;4133;48.752;9.088;2023-04-06T09:33:21;7.87;;;5.77;;
8183;SDS011;4133;48.752;9.088;2023-04-06T09:35:50;8.90;;;6.63;;
8183;SDS011;4133;48.752;9.088;2023-04-06T09:38:16;8.30;;;6.80;;
8183;SDS011;4133;48.752;9.088;2023-04-06T09:40:49;9.70;;;7.20;;
8183;SDS011;4133;48.752;9.088;2023-04-06T09:43:23;8.18;;;6.47;;
8183;SDS011;4133;48.752;9.088;2023-04-06T09:45:49;8.53;;;6.50;;
8183;SDS011;4133;48.752;9.088;2023-04-06T09:48:15;10.60;;;6.60;;
8183;SDS011;4133;48.752;9.088;2023-04-06T09:50:42;7.97;;;6.57;;
8183;SDS011;4133;48.752;9.088;2023-04-06T09:53:08;7.82;;;6.13;;
8183;SDS011;4133;48.752;9.088;2023-04-06T09:55:35;6.53;;;5.27;;
8183;SDS011;4133;48.752;9.088;2023-04-06T09:58:07;6.30;;;5.37;;
8183;SDS011;4133;48.752;9.088;2023-04-06T10:00:47;6.90;;;5.60;;
8183;SDS011;4133;48.752;9.088;2023-04-06T10:03:21;6.07;;;5.43;;
8183;SDS011;4133;48.752;9.088;2023-04-06T10:05:55;6.43;;;5.70;;
8183;SDS011;4133;48.752;9.088;2023-04-06T10:08:24;7.30;;;5.30;;
8183;SDS011;4133;48.752;9.088;2023-04-06T10:10:53;7.43;;;4.70;;
8183;SDS011;4133;48.752;9.088;2023-04-06T10:13:19;6.35;;;5.20;;
8183;SDS011;4133;48.752;9.088;2023-04-06T10:15:45;7.27;;;5.43;;
8183;SDS011;4133;48.752;9.088;2023-04-06T10:18:12;6.67;;;5.17;;
8183;SDS011;4133;48.752;9.088;2023-04-06T10:20:39;7.70;;;5.70;;
8183;SDS011;4133;48.752;9.088;2023-04-06T10:25:57;9.15;;;5.25;;
8183;SDS011;4133;48.752;9.088;2023-04-06T10:28:23;7.13;;;5.38;;
8183;SDS011;4133;48.752;9.088;2023-04-06T10:30:56;6.37;;;4.93;;
8183;SDS011;4133;48.752;9.088;2023-04-06T10:33:22;10.57;;;4.88;;
8183;SDS011;4133;48.752;9.088;2023-04-06T10:35:48;6.30;;;4.60;;
8183;SDS011;4133;48.752;9.088;2023-04-06T10:38:14;5.80;;;5.20;;
8183;SDS011;4133;48.752;9.088;2023-04-06T10:40:44;8.15;;;5.63;;
8183;SDS011;4133;48.752;9.088;2023-04-06T10:43:17;5.40;;;4.75;;
8183;SDS011;4133;48.752;9.088;2023-04-06T10:45:43;6.32;;;5.15;;
8183;SDS011;4133;48.752;9.088;2023-04-06T10:48:13;7.43;;;5.13;;
8183;SDS011;4133;48.752;9.088;2023-04-06T10:50:41;7.90;;;5.25;;
8183;SDS011;4133;48.752;9.088;2023-04-06T10:53:07;5.35;;;4.53;;
8183;SDS011;4133;48.752;9.088;2023-04-06T10:55:33;6.25;;;4.82;;
8183;SDS011;4133;48.752;9.088;2023-04-06T10:58:00;6.57;;;5.20;;
8183;SDS011;4133;48.752;9.088;2023-04-06T11:00:26;5.47;;;4.68;;
8183;SDS011;4133;48.752;9.088;2023-04-06T11:02:58;6.27;;;4.90;;
8183;SDS011;4133;48.752;9.088;2023-04-06T11:05:24;7.82;;;4.80;;
8183;SDS011;4133;48.752;9.088;2023-04-06T11:07:50;5.68;;;5.05;;
8183;SDS011;4133;48.752;9.088;2023-04-06T11:10:20;6.35;;;4.65;;
8183;SDS011;4133;48.752;9.088;2023-04-06T11:12:52;6.47;;;5.10;;
8183;SDS011;4133;48.752;9.088;2023-04-06T11:15:18;5.50;;;4.75;;
8183;SDS011;4133;48.752;9.088;2023-04-06T11:17:44;7.75;;;5.28;;
8183;SDS011;4133;48.752;9.088;2023-04-06T11:20:11;5.97;;;4.70;;
8183;SDS011;4133;48.752;9.088;2023-04-06T11:22:47;6.80;;;4.80;;
8183;SDS011;4133;48.752;9.088;2023-04-06T11:27:57;8.45;;;4.55;;
8183;SDS011;4133;48.752;9.088;2023-04-06T11:30:23;5.93;;;5.00;;
8183;SDS011;4133;48.752;9.088;2023-04-06T11:32:49;8.93;;;4.80;;
8183;SDS011;4133;48.752;9.088;2023-04-06T11:35:19;5.63;;;4.93;;
8183;SDS011;4133;48.752;9.088;2023-04-06T11:37:45;5.65;;;5.05;;
8183;SDS011;4133;48.752;9.088;2023-04-06T11:40:11;5.65;;;4.75;;
8183;SDS011;4133;48.752;9.088;2023-04-06T11:42:37;6.57;;;4.63;;
8183;SDS011;4133;48.752;9.088;2023-04-06T11:45:04;6.32;;;4.78;;
8183;SDS011;4133;48.752;9.088;2023-04-06T11:47:34;5.38;;;4.50;;
8183;SDS011;4133;48.752;9.088;2023-04-06T11:50:11;8.20;;;4.65;;
8183;SDS011;4133;48.752;9.088;2023-04-06T11:52:38;6.68;;;4.60;;
8183;SDS011;4133;48.752;9.088;2023-04-06T11:55:14;5.20;;;4.65;;
8183;SDS011;4133;48.752;9.088;2023-04-06T11:57:41;5.55;;;4.82;;
8183;SDS011;4133;48.752;9.088;2023-04-06T12:00:07;6.50;;;4.93;;
8183;SDS011;4133;48.752;9.088;2023-04-06T12:02:34;7.35;;;4.45;;
8183;SDS011;4133;48.752;9.088;2023-04-06T12:05:01;5.78;;;4.55;;
8183;SDS011;4133;48.752;9.088;2023-04-06T12:07:28;5.15;;;4.60;;
8183;SDS011;4133;48.752;9.088;2023-04-06T12:09:54;4.60;;;4.05;;
8183;SDS011;4133;48.752;9.088;2023-04-06T12:12:20;5.50;;;4.15;;
8183;SDS011;4133;48.752;9.088;2023-04-06T12:14:46;5.60;;;4.18;;
8183;SDS011;4133;48.752;9.088;2023-04-06T12:17:12;4.97;;;4.43;;
8183;SDS011;4133;48.752;9.088;2023-04-06T12:19:38;7.13;;;4.57;;
8183;SDS011;4133;48.752;9.088;2023-04-06T12:22:05;5.30;;;4.47;;
8183;SDS011;4133;48.752;9.088;2023-04-06T12:24:40;7.15;;;4.70;;
8183;SDS011;4133;48.752;9.088;2023-04-06T12:27:06;5.70;;;4.90;;
8183;SDS011;4133;48.752;9.088;2023-04-06T12:29:33;7.50;;;5.00;;
8183;SDS011;4133;48.752;9.088;2023-04-06T12:31:59;7.80;;;5.05;;
8183;SDS011;4133;48.752;9.088;2023-04-06T12:34:26;7.32;;;4.15;;
8183;SDS011;4133;48.752;9.088;2023-04-06T12:36:52;6.32;;;5.72;;
8183;SDS011;4133;48.752;9.088;2023-04-06T12:39:18;6.13;;;5.20;;
8183;SDS011;4133;48.752;9.088;2023-04-06T12:41:45;8.23;;;5.60;;
8183;SDS011;4133;48.752;9.088;2023-04-06T12:44:11;5.97;;;5.32;;
8183;SDS011;4133;48.752;9.088;2023-04-06T12:46:37;5.95;;;5.18;;
8183;SDS011;4133;48.752;9.088;2023-04-06T12:49:03;7.57;;;5.00;;
8183;SDS011;4133;48.752;9.088;2023-04-06T12:51:29;6.70;;;5.53;;
8183;SDS011;4133;48.752;9.088;2023-04-06T12:53:58;6.28;;;5.22;;
8183;SDS011;4133;48.752;9.088;2023-04-06T12:56:24;7.22;;;5.40;;
8183;SDS011;4133;48.752;9.088;2023-04-06T12:58:51;6.65;;;4.88;;
8183;SDS011;4133;48.752;9.088;2023-04-06T13:01:17;6.07;;;5.07;;
8183;SDS011;4133;48.752;9.088;2023-04-06T13:03:43;6.00;;;5.00;;
8183;SDS011;4133;48.752;9.088;2023-04-06T13:06:09;7.32;;;4.97;;
8183;SDS011;4133;48.752;9.088;2023-04-06T13:08:37;5.95;;;5.35;;
8183;SDS011;4133;48.752;9.088;2023-04-06T13:11:03;6.90;;;4.60;;
8183;SDS011;4133;48.752;9.088;2023-04-06T13:13:30;5.97;;;4.82;;
8183;SDS011;4133;48.752;9.088;2023-04-06T13:16:00;6.30;;;4.50;;
8183;SDS011;4133;48.752;9.088;2023-04-06T13:18:27;5.82;;;4.85;;
8183;SDS011;4133;48.752;9.088;2023-04-06T13:20:54;5.05;;;4.50;;
8183;SDS011;4133;48.752;9.088;2023-04-06T13:23:21;5.60;;;4.70;;
8183;SDS011;4133;48.752;9.088;2023-04-06T13:25:47;8.05;;;5.20;;
8183;SDS011;4133;48.752;9.088;2023-04-06T13:28:13;8.75;;;4.40;;
8183;SDS011;4133;48.752;9.088;2023-04-06T13:30:39;4.95;;;4.40;;
8183;SDS011;4133;48.752;9.088;2023-04-06T13:33:05;8.15;;;4.35;;
8183;SDS011;4133;48.752;9.088;2023-04-06T13:35:31;5.40;;;4.32;;
8183;SDS011;4133;48.752;9.088;2023-04-06T13:37:57;4.63;;;4.22;;
8183;SDS011;4133;48.752;9.088;2023-04-06T13:40:23;4.70;;;4.13;;
8183;SDS011;4133;48.752;9.088;2023-04-06T13:42:50;4.70;;;4.20;;
8183;SDS011;4133;48.752;9.088;2023-04-06T13:45:16;7.18;;;4.50;;
8183;SDS011;4133;48.752;9.088;2023-04-06T13:47:42;7.18;;;4.38;;
8183;SDS011;4133;48.752;9.088;2023-04-06T13:50:08;5.25;;;4.50;;
8183;SDS011;4133;48.752;9.088;2023-04-06T13:52:34;6.22;;;4.47;;
8183;SDS011;4133;48.752;9.088;2023-04-06T13:55:01;7.40;;;4.85;;
8183;SDS011;4133;48.752;9.088;2023-04-06T13:57:27;5.25;;;4.43;;
8183;SDS011;4133;48.752;9.088;2023-04-06T13:59:55;5.57;;;4.70;;
8183;SDS011;4133;48.752;9.088;2023-04-06T14:02:21;5.65;;;4.50;;
8183;SDS011;4133;48.752;9.088;2023-04-06T14:04:52;5.57;;;5.00;;
8183;SDS011;4133;48.752;9.088;2023-04-06T14:07:19;7.28;;;5.00;;
8183;SDS011;4133;48.752;9.088;2023-04-06T14:09:45;5.95;;;4.38;;
8183;SDS011;4133;48.752;9.088;2023-04-06T14:12:11;6.45;;;4.78;;
8183;SDS011;4133;48.752;9.088;2023-04-06T14:14:37;5.13;;;4.53;;
8183;SDS011;4133;48.752;9.088;2023-04-06T14:17:03;4.97;;;4.47;;
8183;SDS011;4133;48.752;9.088;2023-04-06T14:19:29;5.47;;;4.43;;
8183;SDS011;4133;48.752;9.088;2023-04-06T14:21:55;6.05;;;4.80;;
8183;SDS011;4133;48.752;9.088;2023-04-06T14:26:50;5.43;;;4.10;;
8183;SDS011;4133;48.752;9.088;2023-04-06T14:29:19;5.85;;;4.53;;
8183;SDS011;4133;48.752;9.088;2023-04-06T14:31:46;4.97;;;4.28;;
8183;SDS011;4133;48.752;9.088;2023-04-06T14:34:12;5.07;;;4.05;;
8183;SDS011;4133;48.752;9.088;2023-04-06T14:36:38;5.55;;;3.35;;
8183;SDS011;4133;48.752;9.088;2023-04-06T14:39:05;4.72;;;3.42;;
8183;SDS011;4133;48.752;9.088;2023-04-06T14:41:32;3.85;;;3.13;;
8183;SDS011;4133;48.752;9.088;2023-04-06T14:43:58;6.45;;;3.20;;
8183;SDS011;4133;48.752;9.088;2023-04-06T14:46:24;5.63;;;3.10;;
8183;SDS011;4133;48.752;9.088;2023-04-06T14:48:52;5.40;;;3.15;;
8183;SDS011;4133;48.752;9.088;2023-04-06T14:51:19;4.80;;;3.30;;
8183;SDS011;4133;48.752;9.088;2023-04-06T14:53:45;5.70;;;3.60;;
8183;SDS011;4133;48.752;9.088;2023-04-06T14:56:11;5.18;;;3.40;;
8183;SDS011;4133;48.752;9.088;2023-04-06T14:58:37;3.55;;;3.15;;
8183;SDS011;4133;48.752;9.088;2023-04-06T15:01:03;4.80;;;3.33;;
8183;SDS011;4133;48.752;9.088;2023-04-06T15:03:30;4.50;;;3.00;;
8183;SDS011;4133;48.752;9.088;2023-04-06T15:05:56;4.25;;;3.05;;
8183;SDS011;4133;48.752;9.088;2023-04-06T15:08:23;3.45;;;3.15;;
8183;SDS011;4133;48.752;9.088;2023-04-06T15:10:49;3.67;;;2.95;;
8183;SDS011;4133;48.752;9.088;2023-04-06T15:13:16;3.78;;;3.20;;
8183;SDS011;4133;48.752;9.088;2023-04-06T15:15:42;4.60;;;3.30;;
8183;SDS011;4133;48.752;9.088;2023-04-06T15:18:09;5.00;;;3.72;;
8183;SDS011;4133;48.752;9.088;2023-04-06T15:20:35;5.00;;;3.67;;
8183;SDS011;4133;48.752;9.088;2023-04-06T15:23:01;3.75;;;3.17;;